Time;durP1;ratioP1;P1;durP2;ratioP2;P2;SDS_P1;SDS_P2;PMS_P1;PMS_P2;Temp;Humidity;BMP_temperature;BMP_pressure;BME280_temperature;BME280_humidity;BME280_pressure;Samples;Min_cycle;Max_cycle;Signal;HPM_P1;HPM_P2
2023/07/02 00:00:33;;;;;;;17.70;6.25;;;;;;;;;;5074487;28;20123;-77
2023/07/02 00:03:01;;;;;;;19.88;6.80;;;;;;;;;;5074504;28;20035;-76
2023/07/02 00:05:27;;;;;;;18.40;7.60;;;;;;;;;;5092406;28;20048;-74
2023/07/02 00:07:53;;;;;;;17.55;6.40;;;;;;;;;;5092506;28;20508;-75
2023/07/02 00:10:19;;;;;;;22.40;6.82;;;;;;;;;;5091110;28;20063;-75
2023/07/02 00:12:45;;;;;;;17.73;6.97;;;;;;;;;;5091252;28;20071;-75
2023/07/02 00:15:11;;;;;;;16.10;6.47;;;;;;;;;;5074234;28;20498;-76
2023/07/02 00:17:40;;;;;;;18.15;6.47;;;;;;;;;;5073986;28;20036;-75
2023/07/02 00:20:14;;;;;;;19.58;6.32;;;;;;;;;;5090729;28;20043;-75
2023/07/02 00:22:41;;;;;;;19.17;6.38;;;;;;;;;;5091210;28;20725;-76
2023/07/02 00:25:08;;;;;;;20.30;6.75;;;;;;;;;;5090877;28;20111;-75
2023/07/02 00:27:34;;;;;;;19.27;7.05;;;;;;;;;;5091222;28;20193;-76
2023/07/02 00:30:00;;;;;;;21.10;6.60;;;;;;;;;;5090952;28;20097;-76
2023/07/02 00:32:26;;;;;;;15.98;6.68;;;;;;;;;;5092149;28;20043;-76
2023/07/02 00:34:52;;;;;;;19.98;6.70;;;;;;;;;;5091056;28;20504;-76
2023/07/02 00:37:18;;;;;;;20.83;6.43;;;;;;;;;;5092179;28;20115;-77
2023/07/02 00:39:44;;;;;;;23.17;7.10;;;;;;;;;;5090855;28;20113;-75
2023/07/02 00:42:11;;;;;;;19.63;6.93;;;;;;;;;;5090535;28;20047;-76
2023/07/02 00:44:40;;;;;;;20.85;6.43;;;;;;;;;;5090798;28;20040;-75
2023/07/02 00:47:10;;;;;;;24.15;7.70;;;;;;;;;;5090607;28;20044;-77
2023/07/02 00:49:36;;;;;;;19.63;6.95;;;;;;;;;;5090750;28;20036;-76
2023/07/02 00:52:02;;;;;;;20.13;6.60;;;;;;;;;;5073717;28;20044;-76
2023/07/02 00:54:29;;;;;;;21.90;6.70;;;;;;;;;;5073850;28;20106;-74
2023/07/02 00:56:55;;;;;;;18.08;7.10;;;;;;;;;;5090644;28;20060;-75
2023/07/02 00:59:21;;;;;;;22.60;6.90;;;;;;;;;;5090665;28;20040;-75
2023/07/02 01:01:51;;;;;;;17.88;6.53;;;;;;;;;;5094295;28;20036;-75
2023/07/02 01:04:18;;;;;;;21.88;6.70;;;;;;;;;;5094408;28;20032;-77
2023/07/02 01:06:44;;;;;;;25.70;7.78;;;;;;;;;;5061182;28;20048;-76
2023/07/02 01:09:10;;;;;;;22.20;7.35;;;;;;;;;;5077636;28;20523;-75
2023/07/02 01:11:44;;;;;;;18.48;6.55;;;;;;;;;;5077645;28;20051;-76
2023/07/02 01:14:10;;;;;;;22.40;7.20;;;;;;;;;;5077037;28;20079;-76
2023/07/02 01:16:36;;;;;;;20.80;6.78;;;;;;;;;;5094552;28;20081;-74
2023/07/02 01:19:04;;;;;;;20.60;7.03;;;;;;;;;;5093941;28;20051;-74
2023/07/02 01:21:34;;;;;;;24.15;7.63;;;;;;;;;;5092130;28;20040;-75
2023/07/02 01:24:01;;;;;;;24.75;7.97;;;;;;;;;;5094395;28;20047;-75
2023/07/02 01:26:33;;;;;;;22.33;7.38;;;;;;;;;;5094418;28;20036;-75
2023/07/02 01:29:00;;;;;;;21.60;7.50;;;;;;;;;;5095032;28;20040;-76
2023/07/02 01:31:26;;;;;;;24.60;7.80;;;;;;;;;;5094471;28;20131;-75
2023/07/02 01:33:52;;;;;;;23.67;6.50;;;;;;;;;;5094507;28;20484;-76
2023/07/02 01:36:18;;;;;;;22.38;7.63;;;;;;;;;;5094838;28;20484;-73
2023/07/02 01:38:44;;;;;;;30.77;9.00;;;;;;;;;;5094038;28;20098;-75
2023/07/02 01:41:10;;;;;;;19.83;7.53;;;;;;;;;;5093881;28;20093;-75
2023/07/02 01:43:37;;;;;;;20.52;7.68;;;;;;;;;;5093878;28;20039;-75
2023/07/02 01:46:03;;;;;;;19.95;7.80;;;;;;;;;;5093906;28;20043;-75
2023/07/02 01:48:29;;;;;;;26.27;7.38;;;;;;;;;;5095035;28;20073;-75
2023/07/02 01:50:55;;;;;;;25.30;7.88;;;;;;;;;;5077007;28;20063;-76
2023/07/02 01:53:21;;;;;;;23.98;8.30;;;;;;;;;;5093598;28;20504;-75
2023/07/02 01:55:47;;;;;;;23.25;7.40;;;;;;;;;;5093644;28;20048;-77
2023/07/02 01:58:13;;;;;;;26.40;7.63;;;;;;;;;;5076883;28;20392;-75
2023/07/02 02:00:39;;;;;;;25.58;7.40;;;;;;;;;;5093600;28;20032;-75
2023/07/02 02:03:06;;;;;;;25.40;7.93;;;;;;;;;;5075375;28;20036;-74
2023/07/02 02:05:32;;;;;;;25.02;7.70;;;;;;;;;;5075636;28;20040;-75
2023/07/02 02:07:58;;;;;;;24.63;7.63;;;;;;;;;;5093559;28;20544;-75
2023/07/02 02:10:24;;;;;;;22.75;7.95;;;;;;;;;;5093954;28;20115;-75
2023/07/02 02:12:50;;;;;;;23.35;7.47;;;;;;;;;;5092569;28;20044;-75
2023/07/02 02:15:16;;;;;;;20.58;7.60;;;;;;;;;;5092864;28;20044;-75
2023/07/02 02:17:42;;;;;;;20.20;7.80;;;;;;;;;;5093247;28;20068;-75
2023/07/02 02:20:09;;;;;;;21.23;8.02;;;;;;;;;;5093093;28;20538;-75
2023/07/02 02:22:35;;;;;;;25.77;7.53;;;;;;;;;;5093303;28;20408;-75
2023/07/02 02:25:01;;;;;;;25.65;8.27;;;;;;;;;;5093081;28;20082;-74
2023/07/02 02:27:27;;;;;;;28.48;7.13;;;;;;;;;;5075769;28;20044;-75
2023/07/02 02:29:53;;;;;;;24.13;7.72;;;;;;;;;;5062272;28;20044;-75
2023/07/02 02:32:21;;;;;;;22.20;6.72;;;;;;;;;;5092793;28;20089;-76
2023/07/02 02:34:47;;;;;;;24.50;7.47;;;;;;;;;;5092860;28;20094;-75
2023/07/02 02:37:13;;;;;;;22.50;7.40;;;;;;;;;;5075879;28;20044;-75
2023/07/02 02:39:39;;;;;;;21.58;6.90;;;;;;;;;;5092685;28;20051;-75
2023/07/02 02:42:05;;;;;;;31.52;8.27;;;;;;;;;;5093170;28;20070;-74
2023/07/02 02:44:32;;;;;;;27.10;7.05;;;;;;;;;;5092641;28;20418;-74
2023/07/02 02:46:59;;;;;;;22.33;7.50;;;;;;;;;;5093090;28;20140;-75
2023/07/02 02:49:25;;;;;;;24.23;7.22;;;;;;;;;;5092442;28;20101;-75
2023/07/02 02:51:51;;;;;;;20.70;7.65;;;;;;;;;;5092878;28;20040;-75
2023/07/02 02:54:17;;;;;;;21.73;6.95;;;;;;;;;;5092219;28;20393;-75
2023/07/02 02:56:43;;;;;;;23.65;7.25;;;;;;;;;;5092508;28;20036;-75
2023/07/02 02:59:09;;;;;;;25.38;7.80;;;;;;;;;;5092548;28;20043;-74
2023/07/02 03:01:35;;;;;;;30.95;8.93;;;;;;;;;;5077995;28;20492;-74
2023/07/02 03:04:02;;;;;;;27.73;7.85;;;;;;;;;;5075688;28;20093;-74
2023/07/02 03:06:28;;;;;;;26.50;8.85;;;;;;;;;;5092445;28;20048;-75
2023/07/02 03:08:54;;;;;;;23.92;7.65;;;;;;;;;;5075403;28;20047;-73
2023/07/02 03:11:20;;;;;;;23.30;7.63;;;;;;;;;;5093414;28;20048;-74
2023/07/02 03:13:47;;;;;;;17.30;7.35;;;;;;;;;;5092396;28;20036;-74
2023/07/02 03:16:14;;;;;;;22.25;7.72;;;;;;;;;;5075461;28;20048;-75
2023/07/02 03:18:40;;;;;;;25.95;8.40;;;;;;;;;;5059070;28;20040;-75
2023/07/02 03:21:06;;;;;;;22.77;7.05;;;;;;;;;;5075290;28;20075;-74
2023/07/02 03:23:32;;;;;;;26.17;7.70;;;;;;;;;;5091587;28;20044;-74
2023/07/02 03:25:58;;;;;;;21.90;7.38;;;;;;;;;;5092295;28;20495;-74
2023/07/02 03:28:24;;;;;;;24.98;7.93;;;;;;;;;;5092810;28;20043;-74
2023/07/02 03:30:50;;;;;;;21.48;7.63;;;;;;;;;;5092296;28;20485;-76
2023/07/02 03:33:16;;;;;;;25.25;7.18;;;;;;;;;;5091450;28;20208;-77
2023/07/02 03:35:42;;;;;;;25.13;6.90;;;;;;;;;;5091788;28;20052;-76
2023/07/02 03:38:08;;;;;;;22.90;7.45;;;;;;;;;;5091659;28;20032;-76
2023/07/02 03:40:34;;;;;;;23.40;7.07;;;;;;;;;;5091614;28;20044;-77
2023/07/02 03:43:00;;;;;;;22.48;6.93;;;;;;;;;;5091983;28;20481;-76
2023/07/02 03:45:27;;;;;;;25.95;7.47;;;;;;;;;;5092623;28;20122;-75
2023/07/02 03:47:53;;;;;;;22.08;7.45;;;;;;;;;;5074803;28;20048;-76
2023/07/02 03:50:19;;;;;;;26.27;7.05;;;;;;;;;;5091540;28;20115;-75
2023/07/02 03:52:45;;;;;;;22.00;7.28;;;;;;;;;;5091554;28;20044;-76
2023/07/02 03:55:12;;;;;;;27.05;7.32;;;;;;;;;;5091292;28;20036;-76
2023/07/02 03:57:38;;;;;;;20.00;6.93;;;;;;;;;;5074378;28;20048;-76
2023/07/02 04:00:09;;;;;;;18.50;6.53;;;;;;;;;;5091284;28;20040;-76
2023/07/02 04:02:35;;;;;;;20.35;6.80;;;;;;;;;;5072501;28;20035;-75
2023/07/02 04:05:02;;;;;;;21.75;6.72;;;;;;;;;;5090897;28;20481;-75
2023/07/02 04:07:28;;;;;;;20.50;7.00;;;;;;;;;;5092310;28;20097;-76
2023/07/02 04:09:54;;;;;;;23.80;6.82;;;;;;;;;;5071608;28;20477;-75
2023/07/02 04:12:20;;;;;;;23.60;7.68;;;;;;;;;;5090891;28;20385;-75
2023/07/02 04:14:46;;;;;;;22.23;6.45;;;;;;;;;;5091028;28;20036;-74
2023/07/02 04:17:12;;;;;;;29.25;7.88;;;;;;;;;;5091370;28;20035;-74
2023/07/02 04:19:38;;;;;;;24.38;6.88;;;;;;;;;;5090827;28;20047;-74
2023/07/02 04:22:05;;;;;;;20.95;6.70;;;;;;;;;;5091110;28;20557;-74
2023/07/02 04:24:31;;;;;;;22.52;6.78;;;;;;;;;;5090837;28;20093;-74
2023/07/02 04:26:57;;;;;;;22.88;8.23;;;;;;;;;;5091228;28;20074;-74
2023/07/02 04:29:23;;;;;;;18.77;6.97;;;;;;;;;;5090959;28;20496;-73
2023/07/02 04:31:49;;;;;;;21.00;6.53;;;;;;;;;;5074230;28;20126;-75
2023/07/02 04:34:15;;;;;;;23.00;6.60;;;;;;;;;;5090790;28;20052;-76
2023/07/02 04:36:41;;;;;;;22.92;6.50;;;;;;;;;;5090595;28;20504;-76
2023/07/02 04:39:09;;;;;;;23.73;6.05;;;;;;;;;;5091199;28;20047;-75
2023/07/02 04:41:35;;;;;;;22.02;6.53;;;;;;;;;;5090620;28;20063;-75
2023/07/02 04:44:01;;;;;;;24.42;6.70;;;;;;;;;;5090826;28;20093;-74
2023/07/02 04:46:27;;;;;;;24.27;6.90;;;;;;;;;;5090552;28;20076;-76
2023/07/02 04:48:53;;;;;;;18.20;6.50;;;;;;;;;;5092071;28;20040;-73
2023/07/02 04:51:21;;;;;;;20.27;6.15;;;;;;;;;;5091905;28;20069;-74
2023/07/02 04:53:47;;;;;;;18.27;6.82;;;;;;;;;;5090626;28;20512;-74
2023/07/02 04:56:13;;;;;;;20.85;5.93;;;;;;;;;;5090817;28;20507;-74
2023/07/02 04:58:39;;;;;;;18.92;6.20;;;;;;;;;;5090396;28;20116;-75
2023/07/02 05:01:05;;;;;;;22.23;6.80;;;;;;;;;;5091021;28;20507;-75
2023/07/02 05:03:31;;;;;;;19.02;6.03;;;;;;;;;;5090589;28;20040;-76
2023/07/02 05:05:57;;;;;;;19.63;6.15;;;;;;;;;;5090972;28;20507;-77
2023/07/02 05:08:24;;;;;;;19.38;5.75;;;;;;;;;;5073763;28;20047;-78
2023/07/02 05:10:50;;;;;;;19.95;6.40;;;;;;;;;;5090210;28;20052;-74
2023/07/02 05:13:16;;;;;;;16.50;6.28;;;;;;;;;;5073666;28;20044;-75
2023/07/02 05:15:42;;;;;;;21.63;6.45;;;;;;;;;;5089959;28;20036;-76
2023/07/02 05:18:08;;;;;;;22.83;6.18;;;;;;;;;;5090513;28;20048;-75
2023/07/02 05:20:34;;;;;;;19.67;6.32;;;;;;;;;;5090289;28;20032;-76
2023/07/02 05:23:00;;;;;;;18.50;5.97;;;;;;;;;;5090455;28;20036;-75
2023/07/02 05:25:27;;;;;;;23.15;6.35;;;;;;;;;;5090251;28;20131;-75
2023/07/02 05:27:53;;;;;;;20.63;6.07;;;;;;;;;;5090121;28;20044;-74
2023/07/02 05:30:19;;;;;;;17.02;5.93;;;;;;;;;;5090657;28;20558;-74
2023/07/02 05:32:45;;;;;;;19.60;5.68;;;;;;;;;;5090037;28;20408;-75
2023/07/02 05:35:11;;;;;;;19.75;6.05;;;;;;;;;;5073522;28;20047;-74
2023/07/02 05:37:37;;;;;;;21.50;6.63;;;;;;;;;;5090347;28;20119;-74
2023/07/02 05:40:03;;;;;;;19.13;5.57;;;;;;;;;;5090203;28;20067;-75
2023/07/02 05:42:29;;;;;;;19.45;6.50;;;;;;;;;;5090227;28;20043;-75
2023/07/02 05:44:55;;;;;;;15.70;5.90;;;;;;;;;;5090280;28;20485;-74
2023/07/02 05:47:22;;;;;;;14.30;5.38;;;;;;;;;;5091528;28;20062;-76
2023/07/02 05:49:48;;;;;;;16.17;5.45;;;;;;;;;;5093475;28;20044;-75
2023/07/02 05:52:14;;;;;;;14.27;5.40;;;;;;;;;;5093871;28;20119;-73
2023/07/02 05:54:41;;;;;;;16.00;5.70;;;;;;;;;;5076407;28;20091;-75
2023/07/02 05:57:07;;;;;;;16.98;5.53;;;;;;;;;;5077000;28;20058;-73
2023/07/02 05:59:33;;;;;;;16.58;5.60;;;;;;;;;;5093648;28;20040;-75
2023/07/02 06:01:59;;;;;;;16.73;5.60;;;;;;;;;;5093708;28;20059;-76
2023/07/02 06:04:25;;;;;;;14.45;5.18;;;;;;;;;;5077118;28;20534;-74
2023/07/02 06:06:51;;;;;;;12.90;5.18;;;;;;;;;;5093376;28;20511;-76
2023/07/02 06:09:17;;;;;;;18.17;5.97;;;;;;;;;;5093656;28;20078;-75
2023/07/02 06:11:43;;;;;;;16.73;4.97;;;;;;;;;;5093197;28;20385;-75
2023/07/02 06:14:09;;;;;;;13.02;5.25;;;;;;;;;;5093634;28;20036;-75
2023/07/02 06:16:35;;;;;;;17.33;5.05;;;;;;;;;;5092732;28;20044;-76
2023/07/02 06:19:02;;;;;;;12.07;4.90;;;;;;;;;;5093546;28;20480;-75
2023/07/02 06:21:30;;;;;;;14.30;4.53;;;;;;;;;;5076802;28;20382;-74
2023/07/02 06:23:57;;;;;;;14.98;5.53;;;;;;;;;;5094189;28;20331;-74
2023/07/02 06:26:23;;;;;;;19.00;5.30;;;;;;;;;;5093532;28;20493;-74
2023/07/02 06:28:49;;;;;;;15.00;5.00;;;;;;;;;;5092813;28;20047;-74
2023/07/02 06:31:16;;;;;;;15.32;5.05;;;;;;;;;;5093128;28;20086;-73
2023/07/02 06:33:42;;;;;;;18.92;5.07;;;;;;;;;;5093065;28;20039;-74
2023/07/02 06:36:08;;;;;;;18.52;5.30;;;;;;;;;;5092973;28;20485;-74
2023/07/02 06:38:34;;;;;;;14.27;4.85;;;;;;;;;;5094522;28;20118;-73
2023/07/02 06:41:00;;;;;;;16.67;5.60;;;;;;;;;;5059540;28;20048;-74
2023/07/02 06:43:26;;;;;;;15.45;5.05;;;;;;;;;;5092823;28;20077;-74
2023/07/02 06:45:52;;;;;;;15.15;5.22;;;;;;;;;;5092835;28;20051;-74
2023/07/02 06:48:21;;;;;;;13.18;5.75;;;;;;;;;;5092792;28;20484;-74
2023/07/02 06:50:47;;;;;;;18.42;5.55;;;;;;;;;;5092885;28;20047;-74
2023/07/02 06:53:13;;;;;;;18.58;5.30;;;;;;;;;;5092811;28;20113;-74
2023/07/02 06:55:39;;;;;;;18.88;5.03;;;;;;;;;;5092727;28;20048;-75
2023/07/02 06:58:06;;;;;;;11.45;4.53;;;;;;;;;;5092047;28;20044;-73
2023/07/02 07:00:35;;;;;;;12.32;4.65;;;;;;;;;;5075786;28;20051;-75
2023/07/02 07:03:02;;;;;;;16.38;4.60;;;;;;;;;;5075306;28;20074;-74
2023/07/02 07:05:29;;;;;;;14.60;4.13;;;;;;;;;;5093834;28;20119;-77
2023/07/02 07:07:55;;;;;;;9.02;3.42;;;;;;;;;;5093464;28;20489;-77
2023/07/02 07:10:21;;;;;;;10.75;3.30;;;;;;;;;;5075705;28;20140;-78
2023/07/02 07:12:47;;;;;;;9.07;3.20;;;;;;;;;;5091862;28;20036;-77
2023/07/02 07:15:14;;;;;;;11.05;3.70;;;;;;;;;;5092209;28;20086;-75
2023/07/02 07:17:40;;;;;;;11.57;4.03;;;;;;;;;;5092238;28;20106;-77
2023/07/02 07:20:06;;;;;;;13.65;3.95;;;;;;;;;;5093193;28;20044;-77
2023/07/02 07:22:32;;;;;;;16.30;3.65;;;;;;;;;;5092272;28;20157;-75
2023/07/02 07:24:58;;;;;;;13.25;3.67;;;;;;;;;;5092010;28;20115;-75
2023/07/02 07:27:24;;;;;;;11.18;4.18;;;;;;;;;;5092127;28;20401;-76
2023/07/02 07:29:50;;;;;;;11.77;3.70;;;;;;;;;;5091659;28;20040;-76
2023/07/02 07:32:16;;;;;;;12.15;3.40;;;;;;;;;;5091993;28;20123;-76
2023/07/02 07:34:43;;;;;;;14.45;3.42;;;;;;;;;;5091790;28;20118;-76
2023/07/02 07:37:09;;;;;;;8.00;3.05;;;;;;;;;;5074743;28;20048;-76
2023/07/02 07:39:35;;;;;;;10.45;3.20;;;;;;;;;;5091871;28;20036;-77
2023/07/02 07:42:01;;;;;;;9.20;3.08;;;;;;;;;;5091375;28;20032;-76
2023/07/02 07:44:28;;;;;;;11.43;2.92;;;;;;;;;;5091894;28;20042;-76
2023/07/02 07:46:58;;;;;;;10.88;3.00;;;;;;;;;;5091764;28;20105;-73
2023/07/02 07:49:24;;;;;;;8.85;2.90;;;;;;;;;;5091973;28;20081;-71
2023/07/02 07:51:50;;;;;;;8.00;3.13;;;;;;;;;;5091245;28;20123;-73
2023/07/02 07:54:16;;;;;;;10.05;3.40;;;;;;;;;;5091179;28;20052;-73
2023/07/02 07:56:42;;;;;;;24.80;4.10;;;;;;;;;;5091445;28;20173;-76
2023/07/02 07:59:11;;;;;;;9.57;3.30;;;;;;;;;;5091610;28;20135;-76
2023/07/02 08:01:37;;;;;;;12.30;3.88;;;;;;;;;;5091434;28;20040;-75
2023/07/02 08:04:03;;;;;;;8.00;3.40;;;;;;;;;;5091189;28;20369;-74
2023/07/02 08:06:29;;;;;;;10.48;3.70;;;;;;;;;;5091687;28;20043;-75
2023/07/02 08:08:55;;;;;;;11.50;3.28;;;;;;;;;;5073811;28;20047;-74
2023/07/02 08:11:21;;;;;;;9.15;3.40;;;;;;;;;;5091145;28;20500;-72
2023/07/02 08:13:47;;;;;;;10.43;3.75;;;;;;;;;;5091144;28;20063;-74
2023/07/02 08:16:13;;;;;;;10.73;3.28;;;;;;;;;;5090890;28;20044;-72
2023/07/02 08:18:39;;;;;;;9.57;3.30;;;;;;;;;;5091305;28;20489;-72
2023/07/02 08:21:06;;;;;;;12.10;3.28;;;;;;;;;;5091138;28;20440;-74
2023/07/02 08:23:32;;;;;;;11.07;3.67;;;;;;;;;;5091140;28;20127;-73
2023/07/02 08:25:58;;;;;;;15.10;4.30;;;;;;;;;;5090512;28;20050;-73
2023/07/02 08:28:24;;;;;;;9.50;3.35;;;;;;;;;;5091088;28;20101;-73
2023/07/02 08:30:50;;;;;;;11.95;3.90;;;;;;;;;;5091450;28;20048;-74
2023/07/02 08:33:16;;;;;;;12.57;3.95;;;;;;;;;;5090944;28;20446;-75
2023/07/02 08:35:42;;;;;;;9.93;3.50;;;;;;;;;;5090870;28;20044;-72
2023/07/02 08:38:08;;;;;;;10.27;3.80;;;;;;;;;;5091604;28;20074;-73
2023/07/02 08:40:35;;;;;;;11.77;3.88;;;;;;;;;;5091003;28;20048;-71
2023/07/02 08:43:01;;;;;;;13.05;4.03;;;;;;;;;;5090422;28;20044;-73
2023/07/02 08:45:27;;;;;;;10.25;4.03;;;;;;;;;;5090864;28;20036;-73
2023/07/02 08:47:56;;;;;;;10.20;4.10;;;;;;;;;;5090937;28;20048;-72
2023/07/02 08:50:22;;;;;;;12.23;3.70;;;;;;;;;;5091078;28;20051;-73
2023/07/02 08:52:48;;;;;;;9.10;3.70;;;;;;;;;;5074349;28;20104;-73
2023/07/02 08:55:14;;;;;;;11.57;3.25;;;;;;;;;;5073147;28;20052;-71
2023/07/02 08:57:42;;;;;;;9.27;2.92;;;;;;;;;;5090828;28;20048;-72
2023/07/02 09:00:09;;;;;;;12.88;3.35;;;;;;;;;;5090269;28;20040;-72
2023/07/02 09:02:35;;;;;;;13.70;3.30;;;;;;;;;;5090911;28;20036;-73
2023/07/02 09:05:02;;;;;;;9.43;3.20;;;;;;;;;;5091443;28;20058;-73
2023/07/02 09:07:28;;;;;;;10.82;3.38;;;;;;;;;;5090686;28;20036;-73
2023/07/02 09:09:54;;;;;;;12.35;3.70;;;;;;;;;;5090568;28;20120;-73
2023/07/02 09:12:31;;;;;;;13.73;3.47;;;;;;;;;;5090388;28;20048;-74
2023/07/02 09:14:58;;;;;;;13.02;4.05;;;;;;;;;;5090387;28;20036;-72
2023/07/02 09:17:28;;;;;;;14.23;3.58;;;;;;;;;;5090762;28;20500;-74
2023/07/02 09:19:55;;;;;;;12.25;3.58;;;;;;;;;;5090606;28;20511;-73
2023/07/02 09:22:21;;;;;;;12.02;3.70;;;;;;;;;;5093366;28;20108;-73
2023/07/02 09:24:54;;;;;;;12.27;3.70;;;;;;;;;;5095606;28;20036;-72
2023/07/02 09:27:20;;;;;;;12.32;3.70;;;;;;;;;;5095284;28;20044;-73
2023/07/02 09:29:51;;;;;;;12.05;3.47;;;;;;;;;;5094495;28;20040;-73
2023/07/02 09:32:24;;;;;;;11.45;3.95;;;;;;;;;;5094129;28;20104;-73
2023/07/02 09:34:50;;;;;;;10.20;3.25;;;;;;;;;;5094194;28;20109;-74
2023/07/02 09:37:16;;;;;;;11.55;4.03;;;;;;;;;;5094099;28;20040;-73
2023/07/02 09:39:43;;;;;;;12.35;3.95;;;;;;;;;;5094099;28;20101;-74
2023/07/02 09:42:10;;;;;;;15.32;4.18;;;;;;;;;;5093912;28;20051;-74
2023/07/02 09:44:36;;;;;;;10.07;3.80;;;;;;;;;;5093988;28;20040;-74
2023/07/02 09:47:06;;;;;;;14.75;4.22;;;;;;;;;;5093642;28;20044;-73
2023/07/02 09:49:36;;;;;;;11.98;3.67;;;;;;;;;;5093953;28;20047;-74
2023/07/02 09:52:06;;;;;;;10.40;3.30;;;;;;;;;;5076657;28;20044;-73
2023/07/02 09:54:32;;;;;;;13.25;3.70;;;;;;;;;;5095054;28;20052;-74
2023/07/02 09:57:02;;;;;;;12.88;3.47;;;;;;;;;;5093688;28;20044;-73
2023/07/02 09:59:28;;;;;;;11.88;3.42;;;;;;;;;;5093830;28;20043;-73
2023/07/02 10:01:54;;;;;;;11.30;3.17;;;;;;;;;;5093682;28;20036;-73
2023/07/02 10:04:23;;;;;;;8.63;2.70;;;;;;;;;;5093386;28;20044;-74
2023/07/02 10:07:00;;;;;;;9.55;3.30;;;;;;;;;;5094692;28;20089;-73
2023/07/02 10:09:36;;;;;;;11.80;3.35;;;;;;;;;;5093339;28;20118;-74
2023/07/02 10:12:02;;;;;;;9.40;3.25;;;;;;;;;;5093385;28;20036;-72
2023/07/02 10:14:40;;;;;;;11.30;3.22;;;;;;;;;;5093236;28;20044;-74
2023/07/02 10:17:07;;;;;;;12.98;3.35;;;;;;;;;;5092912;28;20040;-72
2023/07/02 10:19:33;;;;;;;11.77;3.25;;;;;;;;;;5076661;28;20040;-72
2023/07/02 10:22:03;;;;;;;11.93;3.60;;;;;;;;;;5093344;28;20071;-72
2023/07/02 10:24:29;;;;;;;9.52;3.40;;;;;;;;;;5093241;28;20032;-73
2023/07/02 10:26:58;;;;;;;8.73;3.50;;;;;;;;;;5094511;28;20560;-73
2023/07/02 10:29:25;;;;;;;11.55;3.80;;;;;;;;;;5074984;28;20562;-74
2023/07/02 10:31:52;;;;;;;15.55;5.65;;;;;;;;;;5094348;28;20036;-74
2023/07/02 10:34:35;;;;;;;10.55;3.38;;;;;;;;;;5091967;28;20135;-73
2023/07/02 10:37:01;;;;;;;11.23;3.30;;;;;;;;;;5092945;28;20040;-72
2023/07/02 10:39:29;;;;;;;8.98;3.42;;;;;;;;;;5092858;28;20605;-72
2023/07/02 10:42:04;;;;;;;10.82;3.45;;;;;;;;;;5094465;28;20071;-73
2023/07/02 10:44:30;;;;;;;10.50;3.15;;;;;;;;;;5094043;28;20079;-71
2023/07/02 10:46:56;;;;;;;10.00;3.80;;;;;;;;;;5094143;28;20114;-72
2023/07/02 10:49:30;;;;;;;9.50;3.53;;;;;;;;;;5092593;28;20047;-73
2023/07/02 10:52:07;;;;;;;8.23;3.10;;;;;;;;;;5076093;28;20503;-72
2023/07/02 10:54:40;;;;;;;10.90;3.17;;;;;;;;;;5092445;28;20051;-73
2023/07/02 10:57:07;;;;;;;11.93;3.30;;;;;;;;;;5062019;28;20473;-72
2023/07/02 10:59:33;;;;;;;15.02;5.63;;;;;;;;;;5092366;28;20075;-72
2023/07/02 11:02:03;;;;;;;10.20;3.60;;;;;;;;;;5092612;28;20492;-71
2023/07/02 11:04:29;;;;;;;12.02;3.40;;;;;;;;;;5092307;28;20233;-73
2023/07/02 11:06:55;;;;;;;12.20;3.28;;;;;;;;;;5092742;28;20504;-73
2023/07/02 11:09:21;;;;;;;11.10;2.92;;;;;;;;;;5093384;28;20074;-76
2023/07/02 11:11:54;;;;;;;9.70;3.28;;;;;;;;;;5092242;28;20032;-72
2023/07/02 11:14:47;;;;;;;9.90;3.10;;;;;;;;;;5075190;28;20044;-73
2023/07/02 11:17:13;;;;;;;9.82;3.17;;;;;;;;;;5088889;28;20056;-74
2023/07/02 11:19:39;;;;;;;12.15;3.45;;;;;;;;;;5092379;28;20043;-73
2023/07/02 11:22:05;;;;;;;10.07;2.88;;;;;;;;;;5075248;28;20050;-73
2023/07/02 11:24:32;;;;;;;10.57;2.70;;;;;;;;;;5093253;28;20166;-73
2023/07/02 11:26:59;;;;;;;8.50;2.83;;;;;;;;;;5092091;28;20044;-77
2023/07/02 11:29:26;;;;;;;10.55;2.85;;;;;;;;;;5091577;28;20089;-72
2023/07/02 11:31:52;;;;;;;10.90;2.67;;;;;;;;;;5093503;28;20447;-73
2023/07/02 11:34:19;;;;;;;9.05;2.40;;;;;;;;;;5091493;28;20044;-73
2023/07/02 11:36:46;;;;;;;12.57;2.72;;;;;;;;;;5091816;28;20039;-73
2023/07/02 11:39:12;;;;;;;12.35;2.60;;;;;;;;;;5091958;28;20078;-72
2023/07/02 11:41:42;;;;;;;9.25;2.40;;;;;;;;;;5091317;28;20032;-72
2023/07/02 11:44:08;;;;;;;9.07;2.67;;;;;;;;;;5091095;28;20042;-72
2023/07/02 11:46:34;;;;;;;11.55;2.80;;;;;;;;;;5090857;28;20036;-72
2023/07/02 11:49:01;;;;;;;10.38;2.63;;;;;;;;;;5093318;28;20040;-73
2023/07/02 11:51:27;;;;;;;7.75;2.40;;;;;;;;;;5092533;28;20087;-70
2023/07/02 11:53:54;;;;;;;8.85;2.78;;;;;;;;;;5091783;28;20048;-72
2023/07/02 11:56:20;;;;;;;15.43;2.78;;;;;;;;;;5090842;28;20123;-73
2023/07/02 11:58:46;;;;;;;6.60;2.58;;;;;;;;;;5091507;28;20044;-71
2023/07/02 12:01:12;;;;;;;11.90;2.67;;;;;;;;;;5092800;28;20507;-71
2023/07/02 12:03:38;;;;;;;6.25;2.30;;;;;;;;;;5091025;28;20128;-72
2023/07/02 12:06:05;;;;;;;10.57;3.08;;;;;;;;;;5091473;28;20044;-72
2023/07/02 12:08:31;;;;;;;10.70;3.35;;;;;;;;;;5090917;28;20051;-71
2023/07/02 12:10:57;;;;;;;8.23;2.70;;;;;;;;;;5092663;28;20094;-71
2023/07/02 12:13:23;;;;;;;10.55;2.88;;;;;;;;;;5090854;28;20051;-72
2023/07/02 12:15:51;;;;;;;7.07;2.88;;;;;;;;;;5108184;28;20169;-70
2023/07/02 12:18:17;;;;;;;8.45;2.78;;;;;;;;;;5091086;28;20032;-72
2023/07/02 12:20:43;;;;;;;11.88;3.10;;;;;;;;;;5092124;28;20036;-72
2023/07/02 12:23:13;;;;;;;14.45;2.80;;;;;;;;;;5074572;28;20393;-72
2023/07/02 12:25:39;;;;;;;10.63;2.80;;;;;;;;;;5091845;28;20032;-72
2023/07/02 12:28:06;;;;;;;8.88;3.33;;;;;;;;;;5091226;28;20035;-71
2023/07/02 12:30:32;;;;;;;11.43;3.55;;;;;;;;;;5090927;28;20048;-72
2023/07/02 12:32:58;;;;;;;11.25;3.03;;;;;;;;;;5090866;28;20116;-73
2023/07/02 12:35:24;;;;;;;14.20;3.70;;;;;;;;;;5090649;28;20044;-72
2023/07/02 12:37:51;;;;;;;16.10;4.07;;;;;;;;;;5090696;28;20043;-73
2023/07/02 12:40:17;;;;;;;11.80;3.95;;;;;;;;;;5090874;28;20040;-71
2023/07/02 12:42:44;;;;;;;13.02;4.22;;;;;;;;;;5090875;28;20093;-74
2023/07/02 12:45:11;;;;;;;11.60;3.90;;;;;;;;;;5091465;28;20492;-72
2023/07/02 12:47:37;;;;;;;12.15;4.32;;;;;;;;;;5073627;28;20043;-74
2023/07/02 12:50:04;;;;;;;10.43;3.92;;;;;;;;;;5090996;28;20039;-73
2023/07/02 12:52:30;;;;;;;12.77;4.10;;;;;;;;;;5073709;28;20066;-73
2023/07/02 12:54:56;;;;;;;13.60;4.30;;;;;;;;;;5090379;28;20097;-72
2023/07/02 12:57:22;;;;;;;10.73;3.72;;;;;;;;;;5094059;28;20079;-73
2023/07/02 12:59:48;;;;;;;7.50;3.58;;;;;;;;;;5094504;28;20047;-72
2023/07/02 13:02:14;;;;;;;10.43;4.15;;;;;;;;;;5094914;28;20040;-73
2023/07/02 13:04:40;;;;;;;9.77;3.92;;;;;;;;;;5095871;28;20431;-72
2023/07/02 13:07:07;;;;;;;8.88;3.75;;;;;;;;;;5061522;28;20522;-74
2023/07/02 13:09:33;;;;;;;9.38;3.60;;;;;;;;;;5094338;28;20181;-72
2023/07/02 13:11:59;;;;;;;9.52;3.70;;;;;;;;;;5094944;28;20391;-73
2023/07/02 13:14:25;;;;;;;7.75;3.63;;;;;;;;;;5094769;28;20055;-73
2023/07/02 13:16:51;;;;;;;9.98;4.10;;;;;;;;;;5077736;28;20507;-72
2023/07/02 13:19:17;;;;;;;10.93;4.00;;;;;;;;;;5094507;28;20125;-72
2023/07/02 13:21:43;;;;;;;11.30;3.90;;;;;;;;;;5077623;28;20485;-73
2023/07/02 13:24:09;;;;;;;10.15;3.72;;;;;;;;;;5095541;28;20036;-73
2023/07/02 13:26:35;;;;;;;10.10;3.83;;;;;;;;;;5094169;28;20044;-72
2023/07/02 13:29:01;;;;;;;10.60;3.92;;;;;;;;;;5095518;28;20043;-73
2023/07/02 13:31:27;;;;;;;14.90;3.97;;;;;;;;;;5094218;28;20489;-74
2023/07/02 13:33:54;;;;;;;11.52;3.90;;;;;;;;;;5094624;28;20047;-73
2023/07/02 13:36:20;;;;;;;14.15;3.88;;;;;;;;;;5095451;28;20510;-73
2023/07/02 13:38:46;;;;;;;11.13;3.95;;;;;;;;;;5093727;28;20039;-73
2023/07/02 13:41:12;;;;;;;11.20;4.13;;;;;;;;;;5094450;28;20075;-71
2023/07/02 13:43:38;;;;;;;10.88;4.30;;;;;;;;;;5094023;28;20040;-72
2023/07/02 13:46:05;;;;;;;12.27;4.63;;;;;;;;;;5095527;28;20125;-73
2023/07/02 13:48:31;;;;;;;9.18;3.97;;;;;;;;;;5093308;28;20129;-73
2023/07/02 13:50:57;;;;;;;12.10;4.00;;;;;;;;;;5095312;28;20040;-72
2023/07/02 13:53:23;;;;;;;10.20;4.03;;;;;;;;;;5094094;28;20036;-72
2023/07/02 13:55:49;;;;;;;9.55;3.78;;;;;;;;;;5093486;28;20566;-73
2023/07/02 13:58:15;;;;;;;12.00;4.38;;;;;;;;;;5095003;28;20086;-73
2023/07/02 14:00:41;;;;;;;8.95;4.00;;;;;;;;;;5093668;28;20032;-72
2023/07/02 14:03:07;;;;;;;12.40;4.22;;;;;;;;;;5093872;28;20040;-72
2023/07/02 14:05:34;;;;;;;11.27;4.72;;;;;;;;;;5093320;28;20114;-73
2023/07/02 14:08:00;;;;;;;9.13;3.80;;;;;;;;;;5075557;28;20043;-74
2023/07/02 14:10:28;;;;;;;10.25;3.83;;;;;;;;;;5093442;28;20048;-73
2023/07/02 14:12:54;;;;;;;11.65;4.25;;;;;;;;;;5093531;28;20075;-74
2023/07/02 14:15:20;;;;;;;11.18;3.90;;;;;;;;;;5075409;28;20056;-73
2023/07/02 14:17:46;;;;;;;7.90;3.80;;;;;;;;;;5093312;28;20543;-73
2023/07/02 14:20:12;;;;;;;9.90;3.65;;;;;;;;;;5094473;28;20090;-74
2023/07/02 14:22:38;;;;;;;11.30;3.83;;;;;;;;;;5093124;28;20066;-73
2023/07/02 14:25:05;;;;;;;9.50;3.58;;;;;;;;;;5093360;28;20109;-73
2023/07/02 14:27:31;;;;;;;13.35;3.70;;;;;;;;;;5094459;28;20032;-73